createdAt,value
2019-05-10T00:00:20.742Z,84.60
2019-05-10T00:03:07.763Z,85.20
2019-05-10T00:05:54.488Z,85.50
2019-05-10T00:08:41.532Z,85.80
2019-05-10T00:11:33.096Z,86.10
2019-05-10T00:14:34.616Z,86.60
2019-05-10T00:17:14.311Z,86.80
2019-05-10T00:19:43.759Z,86.80
2019-05-10T00:22:13.257Z,87.10
2019-05-10T00:24:42.779Z,87.30
2019-05-10T00:27:12.327Z,87.60
2019-05-10T00:29:41.687Z,87.90
2019-05-10T00:32:11.109Z,88.20
2019-05-10T00:34:40.548Z,88.60
2019-05-10T00:37:10.030Z,88.70
2019-05-10T00:39:39.469Z,89.20
2019-05-10T00:42:09.004Z,89.10
2019-05-10T00:44:38.447Z,89.30
2019-05-10T00:47:07.858Z,89.70
2019-05-10T00:49:37.239Z,89.70
2019-05-10T00:52:06.782Z,89.80
2019-05-10T00:54:36.258Z,89.70
2019-05-10T00:57:05.680Z,89.70
2019-05-10T00:59:35.070Z,89.60
2019-05-10T01:02:04.518Z,89.70
2019-05-10T01:04:33.921Z,89.80
2019-05-10T01:07:03.408Z,89.70
2019-05-10T01:09:32.774Z,89.90
2019-05-10T01:12:02.159Z,89.90
2019-05-10T01:14:31.580Z,89.80
2019-05-10T01:17:00.956Z,89.80
2019-05-10T01:19:30.480Z,89.70
2019-05-10T01:21:59.948Z,89.80
2019-05-10T01:24:29.356Z,89.80
2019-05-10T01:26:58.785Z,89.80
2019-05-10T01:29:28.227Z,89.90
2019-05-10T01:31:57.712Z,89.80
2019-05-10T01:34:27.101Z,89.60
2019-05-10T01:36:56.556Z,89.70
2019-05-10T01:39:25.979Z,89.90
2019-05-10T01:41:55.428Z,89.80
2019-05-10T01:44:24.800Z,90.00
2019-05-10T01:46:54.265Z,90.00
2019-05-10T01:49:23.660Z,90.00
2019-05-10T01:51:53.900Z,90.00
2019-05-10T01:54:23.390Z,90.10
2019-05-10T01:56:52.790Z,90.10
2019-05-10T01:59:22.703Z,90.20
2019-05-10T02:01:52.192Z,90.20
2019-05-10T02:04:21.596Z,90.20
2019-05-10T02:06:51.028Z,90.30
2019-05-10T02:09:20.489Z,90.40
2019-05-10T02:11:49.894Z,90.40
2019-05-10T02:14:19.255Z,90.40
2019-05-10T02:16:48.759Z,90.40
2019-05-10T02:19:18.181Z,90.40
2019-05-10T02:21:47.813Z,90.50
2019-05-10T02:24:17.239Z,90.50
2019-05-10T02:26:46.643Z,90.50
2019-05-10T02:29:16.066Z,90.60
2019-05-10T02:31:45.477Z,90.70
2019-05-10T02:34:14.860Z,90.70
2019-05-10T02:36:44.579Z,90.70
2019-05-10T02:39:14.345Z,90.80
2019-05-10T02:41:43.727Z,90.80
2019-05-10T02:44:13.097Z,90.90
2019-05-10T02:46:42.519Z,90.90
2019-05-10T02:49:11.944Z,90.90
2019-05-10T02:51:41.345Z,90.90
2019-05-10T02:54:10.788Z,90.80
2019-05-10T02:56:41.177Z,90.80
2019-05-10T02:59:12.343Z,90.70
2019-05-10T03:01:45.829Z,90.70
2019-05-10T03:04:15.631Z,90.70
2019-05-10T03:06:45.528Z,90.70
2019-05-10T03:09:14.910Z,90.60
2019-05-10T03:11:48.894Z,90.60
2019-05-10T03:14:22.175Z,90.60
2019-05-10T03:16:52.534Z,90.60
2019-05-10T03:19:22.537Z,90.60
2019-05-10T03:22:06.297Z,90.60
2019-05-10T03:24:35.823Z,90.70
2019-05-10T03:27:06.020Z,90.70
2019-05-10T03:29:35.438Z,90.80
2019-05-10T03:32:04.849Z,90.80
2019-05-10T03:34:34.311Z,90.90
2019-05-10T03:37:03.840Z,90.90
2019-05-10T03:39:33.429Z,90.90
2019-05-10T03:42:02.902Z,90.90
2019-05-10T03:44:32.299Z,90.90
2019-05-10T03:47:01.750Z,90.90
2019-05-10T03:49:31.157Z,90.90
2019-05-10T03:52:00.579Z,90.90
2019-05-10T03:54:30.104Z,90.90
2019-05-10T03:57:12.215Z,90.90
2019-05-10T03:59:30.627Z,90.90
2019-05-10T04:02:00.034Z,90.90
2019-05-10T04:04:29.426Z,90.80
2019-05-10T04:06:58.870Z,90.70
2019-05-10T04:09:28.329Z,90.60
2019-05-10T04:11:57.749Z,90.50
2019-05-10T04:14:27.144Z,90.40
2019-05-10T04:16:56.534Z,90.30
2019-05-10T04:19:25.953Z,90.30
2019-05-10T04:21:55.409Z,90.30
2019-05-10T04:24:24.841Z,90.40
2019-05-10T04:26:54.241Z,90.40
2019-05-10T04:29:23.680Z,90.40
2019-05-10T04:31:53.752Z,90.40
2019-05-10T04:34:23.140Z,90.40
2019-05-10T04:36:52.607Z,90.40
2019-05-10T04:39:21.995Z,90.20
2019-05-10T04:41:51.447Z,90.00
2019-05-10T04:44:20.893Z,90.00
2019-05-10T04:46:50.316Z,89.80
2019-05-10T04:49:19.753Z,89.90
2019-05-10T04:51:49.116Z,89.80
2019-05-10T04:54:18.764Z,89.50
2019-05-10T04:56:48.177Z,89.50
2019-05-10T04:59:17.583Z,89.50
2019-05-10T05:01:47.003Z,89.50
2019-05-10T05:04:16.409Z,89.60
2019-05-10T05:06:45.797Z,89.80
2019-05-10T05:09:15.211Z,89.90
2019-05-10T05:11:44.626Z,90.00
2019-05-10T05:14:14.061Z,89.80
2019-05-10T05:16:43.454Z,89.70
2019-05-10T05:19:13.540Z,89.60
2019-05-10T05:21:43.055Z,89.60
2019-05-10T05:24:17.166Z,89.40
2019-05-10T05:26:43.531Z,89.00
2019-05-10T05:29:12.960Z,88.60
2019-05-10T05:31:42.354Z,88.10
2019-05-10T05:34:11.766Z,87.40
2019-05-10T05:36:41.262Z,87.30
2019-05-10T05:39:10.676Z,87.50
2019-05-10T05:41:49.302Z,87.60
2019-05-10T05:44:11.237Z,87.80
2019-05-10T05:46:40.708Z,88.20
2019-05-10T05:49:10.118Z,88.40
2019-05-10T05:51:39.512Z,89.10
2019-05-10T05:54:09.013Z,89.30
2019-05-10T05:56:38.403Z,89.30
2019-05-10T05:59:08.924Z,89.30
2019-05-10T06:01:38.511Z,89.60
2019-05-10T06:04:12.531Z,89.90
2019-05-10T06:06:38.978Z,90.10
2019-05-10T06:09:09.292Z,90.20
2019-05-10T06:11:38.695Z,90.40
2019-05-10T06:14:10.594Z,90.30
2019-05-10T06:16:39.144Z,90.50
2019-05-10T06:19:08.543Z,90.50
2019-05-10T06:21:38.043Z,90.60
2019-05-10T06:24:13.324Z,90.70
2019-05-10T06:26:38.476Z,90.70
2019-05-10T06:29:16.428Z,90.90
2019-05-10T06:31:39.005Z,90.80
2019-05-10T06:34:08.398Z,90.70
2019-05-10T06:36:37.815Z,90.60
2019-05-10T06:39:07.871Z,90.40
2019-05-10T06:41:37.291Z,90.20
2019-05-10T06:44:06.718Z,89.70
2019-05-10T06:46:36.167Z,89.40
2019-05-10T06:49:08.252Z,89.20
2019-05-10T06:51:36.615Z,88.60
2019-05-10T06:54:06.036Z,88.30
2019-05-10T06:56:35.478Z,88.00
2019-05-10T06:59:13.392Z,87.80
2019-05-10T07:01:38.342Z,87.80
2019-05-10T07:04:06.960Z,87.70
2019-05-10T07:06:36.374Z,87.40
2019-05-10T07:09:06.941Z,87.00
2019-05-10T07:11:37.108Z,86.50
2019-05-10T07:14:06.650Z,86.00
2019-05-10T07:16:36.294Z,85.50
2019-05-10T07:19:05.740Z,84.90
2019-05-10T07:21:39.079Z,84.80
2019-05-10T07:24:06.255Z,84.50
2019-05-10T07:26:35.651Z,83.90
2019-05-10T07:29:05.013Z,83.60
2019-05-10T07:31:34.399Z,84.30
2019-05-10T07:34:03.820Z,84.60
2019-05-10T07:36:33.200Z,84.60
2019-05-10T07:39:07.658Z,83.60
2019-05-10T07:41:33.637Z,83.10
2019-05-10T07:44:08.031Z,82.10
2019-05-10T07:46:39.874Z,81.50
2019-05-10T07:49:06.013Z,80.80
2019-05-10T07:51:35.386Z,80.80
2019-05-10T07:54:06.257Z,80.30
2019-05-10T07:56:39.009Z,79.90
2019-05-10T07:59:06.968Z,79.70
2019-05-10T08:01:36.360Z,79.50
2019-05-10T08:04:05.776Z,79.10
2019-05-10T08:06:43.596Z,78.60
2019-05-10T08:09:09.716Z,78.30
2019-05-10T08:11:39.275Z,78.20
2019-05-10T08:14:11.076Z,77.70
2019-05-10T08:16:39.668Z,77.80
2019-05-10T08:19:09.823Z,77.20
2019-05-10T08:21:39.267Z,76.60
2019-05-10T08:24:13.691Z,76.50
2019-05-10T08:26:39.720Z,76.00
2019-05-10T08:29:15.124Z,76.20
2019-05-10T08:31:46.154Z,76.20
2019-05-10T08:34:11.845Z,75.90
2019-05-10T08:36:45.843Z,76.30
2019-05-10T08:39:13.981Z,76.10
2019-05-10T08:41:45.506Z,76.20
2019-05-10T08:44:19.405Z,76.40
2019-05-10T08:46:45.420Z,76.40
2019-05-10T08:49:14.867Z,76.40
2019-05-10T08:51:49.134Z,76.70
2019-05-10T08:54:15.350Z,76.70
2019-05-10T08:59:33.831Z,74.70
2019-05-10T09:02:02.959Z,74.70
2019-05-10T09:04:42.016Z,74.40
2019-05-10T09:07:03.419Z,74.10
2019-05-10T09:09:33.918Z,73.50
2019-05-10T09:12:08.945Z,73.00
2019-05-10T09:14:34.985Z,72.40
2019-05-10T09:17:04.690Z,72.70
2019-05-10T09:19:40.503Z,73.60
2019-05-10T09:22:05.219Z,74.10
2019-05-10T09:24:34.977Z,74.70
2019-05-10T09:27:05.659Z,75.30
2019-05-10T09:29:37.168Z,76.50
2019-05-10T09:32:06.793Z,78.00
2019-05-10T09:34:36.520Z,78.20
2019-05-10T09:37:08.262Z,78.80
2019-05-10T09:39:37.003Z,78.80
2019-05-10T09:42:09.930Z,78.20
2019-05-10T09:44:37.737Z,77.90
2019-05-10T09:47:07.164Z,78.00
2019-05-10T09:49:36.576Z,77.60
2019-05-10T09:52:12.512Z,76.50
2019-05-10T09:54:38.088Z,76.10
2019-05-10T09:57:08.259Z,75.50
2019-05-10T09:59:37.820Z,75.00
2019-05-10T10:02:14.660Z,74.70
2019-05-10T10:04:38.419Z,73.90
2019-05-10T10:07:07.815Z,73.00
2019-05-10T10:09:42.519Z,72.60
2019-05-10T10:12:08.322Z,72.40
2019-05-10T10:14:39.472Z,71.90
2019-05-10T10:17:08.765Z,72.30
2019-05-10T10:19:40.612Z,72.00
2019-05-10T10:22:10.918Z,71.10
2019-05-10T10:24:41.138Z,70.60
2019-05-10T10:27:10.850Z,70.60
2019-05-10T10:29:40.355Z,69.20
2019-05-10T10:32:09.839Z,68.30
2019-05-10T10:34:42.979Z,66.60
2019-05-10T10:37:14.616Z,66.90
2019-05-10T10:39:41.387Z,65.60
2019-05-10T10:42:13.137Z,65.30
2019-05-10T10:44:41.781Z,65.80
2019-05-10T10:47:11.205Z,65.20
2019-05-10T10:49:40.588Z,66.00
2019-05-10T10:52:11.408Z,66.00
2019-05-10T10:54:41.030Z,65.80
2019-05-10T10:57:10.499Z,65.60
2019-05-10T10:59:39.927Z,66.00
2019-05-10T11:02:31.557Z,66.40
2019-05-10T11:04:46.365Z,66.20
2019-05-10T11:07:11.445Z,65.80
2019-05-10T11:09:41.059Z,65.40
2019-05-10T11:12:14.776Z,65.10
2019-05-10T11:14:45.291Z,64.90
2019-05-10T11:17:12.670Z,64.70
2019-05-10T11:19:42.104Z,64.60
2019-05-10T11:22:11.518Z,65.40
2019-05-10T11:24:40.946Z,65.60
2019-05-10T11:27:15.170Z,66.20
2019-05-10T11:29:41.874Z,66.20
2019-05-10T11:32:16.251Z,65.80
2019-05-10T11:34:42.363Z,65.80
2019-05-10T11:37:11.751Z,65.20
2019-05-10T11:39:46.691Z,64.90
2019-05-10T11:42:15.378Z,64.60
2019-05-10T11:44:50.165Z,64.30
2019-05-10T11:47:24.079Z,64.40
2019-05-10T11:49:45.387Z,64.70
2019-05-10T11:52:14.822Z,64.60
2019-05-10T11:54:44.191Z,64.90
2019-05-10T11:57:13.991Z,65.20
2019-05-10T11:59:43.495Z,65.60
2019-05-10T12:02:34.009Z,66.00
2019-05-10T12:04:44.027Z,66.10
2019-05-10T12:07:13.674Z,66.00
2019-05-10T12:09:43.137Z,66.10
2019-05-10T12:12:12.673Z,66.20
2019-05-10T12:14:43.696Z,66.00
2019-05-10T12:19:50.437Z,65.80
2019-05-10T12:22:16.170Z,64.80
2019-05-10T12:25:00.520Z,64.10
2019-05-10T12:26:05.335Z,65.80
2019-05-10T12:27:25.262Z,63.70
2019-05-10T12:29:55.446Z,63.20
2019-05-10T12:32:21.187Z,61.30
2019-05-10T12:34:53.526Z,60.80
2019-05-10T12:37:20.981Z,60.20
2019-05-10T12:39:52.965Z,59.40
2019-05-10T12:42:21.925Z,58.90
2019-05-10T12:44:51.983Z,59.10
2019-05-10T12:47:22.436Z,58.20
2019-05-10T12:49:53.891Z,58.10
2019-05-10T12:52:28.485Z,57.80
2019-05-10T12:54:54.095Z,57.10
2019-05-10T12:57:23.551Z,57.10
2019-05-10T12:59:53.076Z,57.40
2019-05-10T13:02:22.483Z,57.30
2019-05-10T13:04:52.578Z,57.30
2019-05-10T13:07:22.970Z,57.10
2019-05-10T13:10:02.575Z,56.60
2019-05-10T13:12:23.453Z,56.60
2019-05-10T13:14:53.234Z,55.80
2019-05-10T13:17:22.788Z,55.20
2019-05-10T13:19:52.685Z,55.00
2019-05-10T13:22:23.691Z,54.30
2019-05-10T13:24:53.087Z,53.60
2019-05-10T13:27:22.595Z,52.50
2019-05-10T13:29:53.595Z,52.30
2019-05-10T13:32:23.242Z,51.40
2019-05-10T13:34:52.774Z,51.50
2019-05-10T13:37:24.704Z,51.70
2019-05-10T13:39:58.423Z,51.20
2019-05-10T13:42:24.409Z,51.30
2019-05-10T13:44:53.835Z,50.70
2019-05-10T13:47:23.207Z,49.90
2019-05-10T13:49:52.690Z,49.70
2019-05-10T13:52:22.321Z,50.00
2019-05-10T13:54:51.733Z,49.70
2019-05-10T13:57:21.177Z,49.50
2019-05-10T13:59:55.107Z,49.80
2019-05-10T14:02:31.952Z,49.90
2019-05-10T14:04:52.777Z,50.20
2019-05-10T14:07:22.180Z,50.00
2019-05-10T14:09:51.575Z,49.10
2019-05-10T14:12:23.090Z,48.30
2019-05-10T14:14:55.303Z,48.00
2019-05-10T14:17:23.099Z,48.00
2019-05-10T14:19:52.521Z,48.20
2019-05-10T14:22:21.939Z,48.40
2019-05-10T14:24:52.803Z,48.30
2019-05-10T14:27:22.368Z,48.40
2019-05-10T14:29:51.832Z,48.70
2019-05-10T14:32:21.239Z,48.60
2019-05-10T14:34:50.907Z,48.60
2019-05-10T14:37:21.617Z,49.00
2019-05-10T14:39:51.148Z,49.50
2019-05-10T14:42:23.975Z,50.00
2019-05-10T14:44:51.567Z,50.30
2019-05-10T14:47:20.988Z,50.40
2019-05-10T14:49:50.420Z,50.40
2019-05-10T14:52:22.571Z,49.70
2019-05-10T14:54:55.347Z,49.90
2019-05-10T14:57:21.970Z,50.10
2019-05-10T14:59:51.425Z,49.70
2019-05-10T15:02:22.796Z,49.00
2019-05-10T15:04:51.951Z,48.80
2019-05-10T15:07:21.359Z,48.90
2019-05-10T15:09:54.196Z,49.00
2019-05-10T15:12:22.746Z,49.50
2019-05-10T15:14:52.491Z,50.00
2019-05-10T15:17:21.913Z,50.50
2019-05-10T15:19:57.865Z,51.20
2019-05-10T15:22:23.070Z,51.90
2019-05-10T15:24:53.378Z,52.70
2019-05-10T15:27:24.054Z,53.20
2019-05-10T15:29:58.768Z,53.70
2019-05-10T15:32:24.598Z,54.20
2019-05-10T15:35:06.593Z,54.70
2019-05-10T15:37:25.151Z,55.40
2019-05-10T15:39:54.594Z,55.90
2019-05-10T15:42:24.010Z,57.60
2019-05-10T15:44:53.454Z,58.70
2019-05-10T15:47:23.167Z,59.90
2019-05-10T15:49:54.595Z,61.00
2019-05-10T15:52:23.740Z,61.70
2019-05-10T15:54:53.280Z,61.70
2019-05-10T15:57:22.770Z,61.80
2019-05-10T15:59:56.783Z,61.70
2019-05-10T16:02:23.271Z,61.90
2019-05-10T16:04:52.705Z,61.70
2019-05-10T16:07:22.076Z,61.30
2019-05-10T16:09:54.751Z,61.10
2019-05-10T16:12:22.579Z,61.00
2019-05-10T16:14:51.970Z,60.00
2019-05-10T16:17:23.924Z,60.00
2019-05-10T16:19:59.687Z,59.90
2019-05-10T16:22:25.329Z,59.80
2019-05-10T16:25:00.715Z,59.70
2019-05-10T16:27:25.598Z,59.50
2019-05-10T16:29:54.987Z,58.40
2019-05-10T16:32:29.449Z,55.70
2019-05-10T16:34:55.520Z,53.90
2019-05-10T16:37:24.959Z,52.00
2019-05-10T16:39:54.399Z,49.90
2019-05-10T16:42:27.665Z,46.80
2019-05-10T16:44:54.823Z,44.00
2019-05-10T16:47:24.242Z,41.80
2019-05-10T16:49:55.148Z,39.90
2019-05-10T16:52:26.106Z,39.00
2019-05-10T16:54:57.865Z,38.10
2019-05-10T16:57:32.050Z,37.00
2019-05-10T17:00:01.988Z,36.30
2019-05-10T17:02:28.952Z,35.90
2019-05-10T17:04:58.353Z,35.10
2019-05-10T17:07:27.763Z,34.40
2019-05-10T17:09:57.127Z,34.30
2019-05-10T17:12:27.781Z,34.30
2019-05-10T17:15:02.811Z,34.70
2019-05-10T17:17:31.126Z,37.00
2019-05-10T17:19:59.703Z,39.40
2019-05-10T17:22:29.148Z,42.10
2019-05-10T17:25:03.433Z,44.00
2019-05-10T17:27:29.843Z,45.50
2019-05-10T17:29:59.264Z,47.00
2019-05-10T17:32:28.660Z,48.30
2019-05-10T17:34:59.087Z,49.10
2019-05-10T17:37:29.969Z,50.10
2019-05-10T17:40:04.622Z,51.00
2019-05-10T17:42:35.705Z,51.60
2019-05-10T17:45:04.502Z,52.20
2019-05-10T17:47:33.804Z,52.70
2019-05-10T17:50:03.198Z,53.30
2019-05-10T17:52:32.647Z,54.00
2019-05-10T17:55:02.033Z,54.60
2019-05-10T17:57:31.436Z,55.30
2019-05-10T18:00:00.884Z,56.00
2019-05-10T18:02:30.300Z,56.50
2019-05-10T18:05:05.849Z,57.30
2019-05-10T18:07:30.739Z,57.80
2019-05-10T18:10:00.159Z,58.30
2019-05-10T18:12:29.589Z,58.80
2019-05-10T18:14:59.030Z,59.20
2019-05-10T18:17:28.435Z,59.70
2019-05-10T18:20:02.288Z,60.10
2019-05-10T18:22:28.909Z,60.60
2019-05-10T18:24:58.308Z,60.90
2019-05-10T18:27:27.708Z,61.20
2019-05-10T18:29:57.115Z,61.60
2019-05-10T18:32:29.201Z,62.00
2019-05-10T18:34:57.576Z,62.60
2019-05-10T18:37:26.964Z,63.00
2019-05-10T18:39:56.386Z,63.40
2019-05-10T18:42:27.752Z,63.80
2019-05-10T18:44:56.812Z,64.10
2019-05-10T18:47:26.219Z,64.30
2019-05-10T18:49:55.620Z,64.60
2019-05-10T18:52:24.998Z,65.10
2019-05-10T18:54:54.427Z,65.50
2019-05-10T18:57:23.817Z,65.90
2019-05-10T18:59:53.223Z,66.30
2019-05-10T19:02:22.651Z,66.60
2019-05-10T19:04:54.087Z,67.00
2019-05-10T19:07:23.213Z,67.10
2019-05-10T19:09:52.659Z,67.50
2019-05-10T19:12:23.154Z,67.80
2019-05-10T19:14:53.072Z,68.10
2019-05-10T19:17:22.463Z,68.30
2019-05-10T19:19:51.925Z,68.60
2019-05-10T19:22:21.296Z,68.70
2019-05-10T19:24:50.721Z,69.00
2019-05-10T19:27:20.113Z,69.50
2019-05-10T19:29:49.524Z,70.00
2019-05-10T19:32:20.402Z,70.50
2019-05-10T19:34:57.346Z,70.80
2019-05-10T19:37:30.157Z,71.00
2019-05-10T19:39:52.008Z,71.40
2019-05-10T19:42:21.698Z,71.60
2019-05-10T19:44:51.123Z,71.80
2019-05-10T19:47:20.609Z,71.90
2019-05-10T19:49:51.800Z,71.90
2019-05-10T19:52:25.819Z,72.00
2019-05-10T19:54:52.144Z,72.30
2019-05-10T19:57:21.567Z,72.60
2019-05-10T19:59:51.027Z,72.90
2019-05-10T20:02:20.521Z,73.30
2019-05-10T20:04:49.988Z,73.40
2019-05-10T20:07:19.452Z,73.60
2019-05-10T20:09:48.791Z,73.70
2019-05-10T20:12:18.202Z,73.70
2019-05-10T20:14:47.586Z,73.70
2019-05-10T20:17:17.230Z,73.60
2019-05-10T20:19:46.779Z,73.60
2019-05-10T20:22:16.185Z,73.70
2019-05-10T20:24:45.580Z,74.00
2019-05-10T20:27:15.046Z,74.30
2019-05-10T20:29:44.398Z,74.50
2019-05-10T20:32:13.909Z,74.70
2019-05-10T20:34:43.380Z,74.80
2019-05-10T20:37:12.776Z,75.10
2019-05-10T20:39:42.178Z,75.30
2019-05-10T20:42:11.620Z,75.60
2019-05-10T20:44:41.031Z,75.80
2019-05-10T20:47:10.432Z,75.90
2019-05-10T20:49:39.870Z,76.20
2019-05-10T20:52:09.351Z,76.40
2019-05-10T20:54:38.726Z,76.60
2019-05-10T20:57:08.160Z,76.70
2019-05-10T20:59:37.574Z,76.80
2019-05-10T21:02:06.992Z,76.90
2019-05-10T21:04:36.460Z,77.10
2019-05-10T21:07:05.903Z,77.10
2019-05-10T21:09:35.282Z,77.20
2019-05-10T21:12:04.739Z,77.10
2019-05-10T21:14:34.123Z,77.10
2019-05-10T21:17:03.566Z,76.90
2019-05-10T21:19:32.969Z,76.90
2019-05-10T21:22:02.391Z,77.00
2019-05-10T21:24:31.763Z,77.20
2019-05-10T21:27:01.194Z,77.10
2019-05-10T21:29:30.590Z,77.20
2019-05-10T21:32:00.035Z,77.10
2019-05-10T21:34:29.423Z,77.00
2019-05-10T21:36:58.882Z,77.00
2019-05-10T21:39:28.337Z,77.10
2019-05-10T21:41:57.811Z,77.10
2019-05-10T21:44:27.240Z,77.30
2019-05-10T21:46:56.606Z,77.50
2019-05-10T21:49:26.039Z,77.70
2019-05-10T21:51:55.467Z,78.00
2019-05-10T21:54:24.873Z,78.20
2019-05-10T21:56:54.336Z,78.40
2019-05-10T21:59:23.827Z,78.80
2019-05-10T22:01:53.212Z,79.30
2019-05-10T22:04:22.766Z,79.60
2019-05-10T22:06:52.198Z,80.00
2019-05-10T22:09:21.671Z,80.50
2019-05-10T22:11:51.093Z,81.00
2019-05-10T22:14:20.547Z,81.40
2019-05-10T22:16:49.982Z,81.80
2019-05-10T22:19:19.416Z,82.10
2019-05-10T22:21:48.827Z,82.30
2019-05-10T22:24:18.276Z,82.50
2019-05-10T22:26:47.691Z,82.70
2019-05-10T22:29:17.483Z,82.80
2019-05-10T22:31:46.939Z,83.00
2019-05-10T22:34:16.357Z,83.20
2019-05-10T22:36:45.784Z,83.40
2019-05-10T22:39:15.216Z,83.40
2019-05-10T22:41:44.772Z,83.40
2019-05-10T22:44:14.212Z,83.30
2019-05-10T22:46:44.429Z,83.10
2019-05-10T22:49:13.915Z,82.90
2019-05-10T22:51:43.344Z,82.70
2019-05-10T22:54:12.776Z,82.40
2019-05-10T22:56:42.192Z,82.20
2019-05-10T22:59:11.663Z,82.00
2019-05-10T23:01:41.112Z,82.10
2019-05-10T23:04:10.626Z,82.20
2019-05-10T23:06:40.096Z,82.50
2019-05-10T23:09:23.476Z,82.70
2019-05-10T23:11:40.753Z,82.80
2019-05-10T23:14:10.207Z,82.90
2019-05-10T23:16:39.615Z,82.70
2019-05-10T23:19:09.227Z,82.80
2019-05-10T23:21:38.681Z,82.70
2019-05-10T23:24:08.235Z,82.60
2019-05-10T23:26:37.601Z,82.60
2019-05-10T23:29:07.130Z,82.80
2019-05-10T23:31:36.565Z,83.00
2019-05-10T23:34:06.031Z,83.00
2019-05-10T23:36:35.611Z,83.30
2019-05-10T23:39:07.188Z,83.60
2019-05-10T23:41:36.669Z,83.70
2019-05-10T23:44:06.191Z,84.00
2019-05-10T23:46:35.819Z,84.20
2019-05-10T23:49:05.260Z,84.40
2019-05-10T23:51:34.706Z,84.30
2019-05-10T23:54:04.162Z,84.60
2019-05-10T23:56:33.688Z,84.70
2019-05-10T23:59:03.218Z,84.70
